This is the latest recevied weather packets stored in our database for station/object KE6JJJ-1. If no packets are shown the sender has not sent any weather packets the latest 10 day(s).
| Time | Temp. | Humidity | Pressure | Rain* | Wind** | Luminosity | Snow |
|---|---|---|---|---|---|---|---|
| 1778146503 | 12.78° C | 86% | 1019 hPa | 0 mm | - | 0 W/m² | - |
| 1778144705 | 12.78° C | 85% | 1019 hPa | 0 mm | - | 0 W/m² | - |
| 1778142903 | 12.78° C | 86% | 1019.3 hPa | 0 mm | - | 0 W/m² | - |
| 1778141103 | 12.78° C | 86% | 1019.6 hPa | 0 mm | - | 0 W/m² | - |
| 1778139303 | 12.78° C | 86% | 1019.5 hPa | 0 mm | - | 0 W/m² | - |
| 1778137503 | 12.78° C | 86% | 1019.3 hPa | 0 mm | - | 0 W/m² | - |
| 1778135703 | 13.33° C | 87% | 1019.3 hPa | 0 mm | - | 0 W/m² | - |
| 1778133903 | 13.33° C | 86% | 1019.1 hPa | 0 mm | - | 0 W/m² | - |
| 1778132103 | 13.33° C | 86% | 1018.9 hPa | 0 mm | - | 0 W/m² | - |
| 1778130303 | 13.33° C | 85% | 1019.2 hPa | 0 mm | - | 0 W/m² | - |
| 1778128503 | 13.33° C | 85% | 1019.1 hPa | 0 mm | - | 0 W/m² | - |
| 1778126703 | 13.89° C | 84% | 1018.7 hPa | 0 mm | - | 0 W/m² | - |
| 1778124903 | 13.89° C | 83% | 1018.6 hPa | 0 mm | - | 0 W/m² | - |
| 1778123103 | 14.44° C | 81% | 1018.3 hPa | 0 mm | - | 5 W/m² | - |
| 1778121303 | 15.56° C | 77% | 1018.3 hPa | 0 mm | - | 25 W/m² | - |
| 1778119503 | 16.67° C | 73% | 1018.3 hPa | 0 mm | - | 111 W/m² | - |
| 1778117703 | 17.78° C | 72% | 1018.3 hPa | 0 mm | - | 206 W/m² | - |
| 1778115903 | 18.33° C | 71% | 1018.4 hPa | 0 mm | - | 311 W/m² | - |
| 1778114103 | 18.33° C | 71% | 1018.1 hPa | 0 mm | - | 406 W/m² | - |
| 1778112304 | 18.33° C | 70% | 1018.1 hPa | 0 mm | - | 501 W/m² | - |
| 1778110503 | 17.78° C | 72% | 1018.4 hPa | 0 mm | - | 588 W/m² | - |
| 1778108703 | 18.33° C | 73% | 1018.5 hPa | 0 mm | - | 666 W/m² | - |
| 1778106903 | 18.89° C | 71% | 1018.8 hPa | 0 mm | - | 738 W/m² | - |
| 1778105104 | 20° C | 67% | 1019.2 hPa | 0 mm | - | 798 W/m² | - |
| 1778103303 | 20° C | 67% | 1019.5 hPa | 0 mm | - | 844 W/m² | - |
* Rain latest hour (hover to see other rain measurements)
** Current wind speed in m/s (hover to see current wind gust speed)